Capitol Logistics 1156


GMMN
Mohammed V International Airport
Casablanca, MA
EBLG
Liège Airport
Liege, BE

Activity Log

Date Flight Route Aircraft Duration
10/31/2019 CPX756 AGDAL G5 ROMSO UG5 KORIS UL27 VJF LUSEM UL176 CNA UN858 VANAD UN874 CMB M617 CIV CIV5X B738 3h 20m

Route Details

Aircraft Information
Primary: Boeing 737-800BCF
Backup: Not Available
Route Data
Distance: 1185nm
Sched. Duration: 2h 45m
Avg. Duration: 3h 20m (+76m)
Times Flown: 1
Recm'd Route: Not Available
Planned Altitude: 37,000ft
Origin Wx: GMMN 271130Z 36012KT CAVOK 19/06 Q1024 NOSIG
Dest. Wx: EBLG 271150Z 11010KT 9999 -RA FEW006 BKN008 02/01 Q0992 TEMPO 4000 -SNRA
Notes:

Financial History
Total Freight: 44,880lbs
Average Load: 44,880lbs/flt
Fuel Used: 16,880lbs
Avg. Fuel Used: 16,880lbs/flt
Fuel Expense: $12,660
Avg. Fuel Expense: $12,660
Avg. Fuel Cost: $0.75/lbs
Total Gross Income: $327,624
Pilot Pay: $229
Total Expenses: $35,435
Total Revenue: $278,761
Average Revenue: $327,624.00